sensor_id;sensor_type;location;lat;lon;timestamp;pressure;altitude;pressure_sealevel;temperature;humidity
73341;BME280;61578;52.002;5.468;2024-02-26T00:00:13;99913.31;;;8.07;72.01
73341;BME280;61578;52.002;5.468;2024-02-26T00:00:44;99909.72;;;8.08;72.06
73341;BME280;61578;52.002;5.468;2024-02-26T00:01:16;99860.00;;;7.75;71.78
73341;BME280;61578;52.002;5.468;2024-02-26T00:01:47;99911.41;;;8.09;71.89
73341;BME280;61578;52.002;5.468;2024-02-26T00:02:18;99912.25;;;8.09;72.25
73341;BME280;61578;52.002;5.468;2024-02-26T00:02:49;99918.41;;;8.10;72.08
73341;BME280;61578;52.002;5.468;2024-02-26T00:03:19;99907.06;;;8.08;72.08
73341;BME280;61578;52.002;5.468;2024-02-26T00:03:50;99901.38;;;8.01;71.85
73341;BME280;61578;52.002;5.468;2024-02-26T00:04:22;99911.41;;;8.09;72.03
73341;BME280;61578;52.002;5.468;2024-02-26T00:04:53;99909.72;;;8.08;71.82
73341;BME280;61578;52.002;5.468;2024-02-26T00:05:24;99913.00;;;8.11;71.82
73341;BME280;61578;52.002;5.468;2024-02-26T00:05:54;99916.69;;;8.09;71.35
73341;BME280;61578;52.002;5.468;2024-02-26T00:06:26;99914.59;;;8.14;71.84
73341;BME280;61578;52.002;5.468;2024-02-26T00:06:57;99876.50;;;7.91;71.60
73341;BME280;61578;52.002;5.468;2024-02-26T00:07:28;99921.56;;;8.15;71.32
73341;BME280;61578;52.002;5.468;2024-02-26T00:07:59;99915.41;;;8.14;71.39
73341;BME280;61578;52.002;5.468;2024-02-26T00:08:30;99902.97;;;8.04;71.34
73341;BME280;61578;52.002;5.468;2024-02-26T00:09:00;99922.63;;;8.12;71.45
73341;BME280;61578;52.002;5.468;2024-02-26T00:09:33;99920.94;;;8.11;71.45
73341;BME280;61578;52.002;5.468;2024-02-26T00:10:07;99916.25;;;8.15;71.39
73341;BME280;61578;52.002;5.468;2024-02-26T00:10:38;99925.03;;;8.16;71.45
73341;BME280;61578;52.002;5.468;2024-02-26T00:11:08;99916.50;;;8.12;71.60
73341;BME280;61578;52.002;5.468;2024-02-26T00:11:39;99924.31;;;8.13;71.21
73341;BME280;61578;52.002;5.468;2024-02-26T00:12:10;99911.22;;;8.12;71.44
73341;BME280;61578;52.002;5.468;2024-02-26T00:12:41;99876.72;;;7.88;71.29
73341;BME280;61578;52.002;5.468;2024-02-26T00:13:12;99913.75;;;8.13;71.39
73341;BME280;61578;52.002;5.468;2024-02-26T00:13:43;99916.41;;;8.13;71.49
73341;BME280;61578;52.002;5.468;2024-02-26T00:14:13;99923.34;;;8.14;71.27
73341;BME280;61578;52.002;5.468;2024-02-26T00:14:44;99919.03;;;8.13;71.34
73341;BME280;61578;52.002;5.468;2024-02-26T00:15:17;99914.59;;;8.14;71.50
73341;BME280;61578;52.002;5.468;2024-02-26T00:15:48;99876.81;;;7.87;71.33
73341;BME280;61578;52.002;5.468;2024-02-26T00:16:18;99913.09;;;8.10;71.61
73341;BME280;61578;52.002;5.468;2024-02-26T00:16:49;99838.63;;;7.65;71.25
73341;BME280;61578;52.002;5.468;2024-02-26T00:17:20;99928.88;;;8.11;71.47
73341;BME280;61578;52.002;5.468;2024-02-26T00:17:51;99914.69;;;8.12;71.34
73341;BME280;61578;52.002;5.468;2024-02-26T00:18:21;99915.19;;;8.05;71.65
73341;BME280;61578;52.002;5.468;2024-02-26T00:18:52;99920.09;;;8.11;71.41
73341;BME280;61578;52.002;5.468;2024-02-26T00:19:23;99922.63;;;8.12;71.34
73341;BME280;61578;52.002;5.468;2024-02-26T00:19:54;99841.09;;;7.68;71.44
73341;BME280;61578;52.002;5.468;2024-02-26T00:20:25;99911.09;;;8.13;71.09
73341;BME280;61578;52.002;5.468;2024-02-26T00:20:56;99913.75;;;8.13;71.18
73341;BME280;61578;52.002;5.468;2024-02-26T00:21:28;99912.16;;;8.11;71.38
73341;BME280;61578;52.002;5.468;2024-02-26T00:21:59;99919.25;;;8.10;71.10
73341;BME280;61578;52.002;5.468;2024-02-26T00:22:31;99927.59;;;8.17;71.08
73341;BME280;61578;52.002;5.468;2024-02-26T00:23:01;99920.59;;;8.16;71.16
73341;BME280;61578;52.002;5.468;2024-02-26T00:23:32;99914.38;;;8.17;71.52
73341;BME280;61578;52.002;5.468;2024-02-26T00:24:03;99875.47;;;7.94;71.14
73341;BME280;61578;52.002;5.468;2024-02-26T00:24:34;99913.53;;;8.17;71.39
73341;BME280;61578;52.002;5.468;2024-02-26T00:25:05;99915.22;;;8.18;71.00
73341;BME280;61578;52.002;5.468;2024-02-26T00:25:36;99916.41;;;8.13;71.67
73341;BME280;61578;52.002;5.468;2024-02-26T00:26:08;99914.69;;;8.12;71.56
73341;BME280;61578;52.002;5.468;2024-02-26T00:26:39;99926.97;;;8.13;71.60
73341;BME280;61578;52.002;5.468;2024-02-26T00:27:10;99895.84;;;8.04;71.46
73341;BME280;61578;52.002;5.468;2024-02-26T00:27:41;99917.44;;;8.11;71.21
73341;BME280;61578;52.002;5.468;2024-02-26T00:28:13;99917.34;;;8.12;71.14
73341;BME280;61578;52.002;5.468;2024-02-26T00:28:44;99901.97;;;8.05;71.64
73341;BME280;61578;52.002;5.468;2024-02-26T00:29:14;99904.63;;;8.05;71.44
73341;BME280;61578;52.002;5.468;2024-02-26T00:29:45;99911.31;;;8.10;71.56
73341;BME280;61578;52.002;5.468;2024-02-26T00:30:16;99920.09;;;8.11;71.58
73341;BME280;61578;52.002;5.468;2024-02-26T00:30:49;99919.44;;;8.07;71.50
73341;BME280;61578;52.002;5.468;2024-02-26T00:31:21;99915.94;;;8.07;71.79
73341;BME280;61578;52.002;5.468;2024-02-26T00:31:52;99915.75;;;8.10;71.41
73341;BME280;61578;52.002;5.468;2024-02-26T00:32:23;99908.13;;;8.05;71.31
73341;BME280;61578;52.002;5.468;2024-02-26T00:32:54;99919.34;;;8.09;71.44
73341;BME280;61578;52.002;5.468;2024-02-26T00:33:24;99914.81;;;8.11;71.34
73341;BME280;61578;52.002;5.468;2024-02-26T00:33:55;99917.44;;;8.11;71.11
73341;BME280;61578;52.002;5.468;2024-02-26T00:34:26;99916.69;;;8.09;71.35
73341;BME280;61578;52.002;5.468;2024-02-26T00:34:57;99918.59;;;8.07;71.26
73341;BME280;61578;52.002;5.468;2024-02-26T00:35:28;99890.25;;;7.96;71.56
73341;BME280;61578;52.002;5.468;2024-02-26T00:35:59;99919.25;;;8.10;71.48
73341;BME280;61578;52.002;5.468;2024-02-26T00:36:29;99878.50;;;7.88;71.43
73341;BME280;61578;52.002;5.468;2024-02-26T00:37:01;99909.63;;;8.09;71.53
73341;BME280;61578;52.002;5.468;2024-02-26T00:37:32;99922.72;;;8.11;71.17
73341;BME280;61578;52.002;5.468;2024-02-26T00:38:03;99913.09;;;8.10;71.26
73341;BME280;61578;52.002;5.468;2024-02-26T00:38:35;99913.84;;;8.12;71.38
73341;BME280;61578;52.002;5.468;2024-02-26T00:39:06;99928.13;;;8.09;71.31
73341;BME280;61578;52.002;5.468;2024-02-26T00:39:37;99915.75;;;8.10;71.45
73341;BME280;61578;52.002;5.468;2024-02-26T00:40:08;99880.00;;;7.92;71.35
73341;BME280;61578;52.002;5.468;2024-02-26T00:40:39;99915.41;;;8.14;71.27
73341;BME280;61578;52.002;5.468;2024-02-26T00:41:11;99914.81;;;8.11;71.24
73341;BME280;61578;52.002;5.468;2024-02-26T00:41:42;99925.28;;;8.12;71.21
73341;BME280;61578;52.002;5.468;2024-02-26T00:42:12;99917.75;;;8.19;71.15
73341;BME280;61578;52.002;5.468;2024-02-26T00:42:43;99912.47;;;8.19;70.97
73341;BME280;61578;52.002;5.468;2024-02-26T00:43:16;99931.72;;;8.21;71.12
73341;BME280;61578;52.002;5.468;2024-02-26T00:43:47;99879.56;;;7.98;71.01
73341;BME280;61578;52.002;5.468;2024-02-26T00:44:18;99880.63;;;7.95;71.02
73341;BME280;61578;52.002;5.468;2024-02-26T00:44:48;99919.25;;;8.23;71.00
73341;BME280;61578;52.002;5.468;2024-02-26T00:45:19;99909.94;;;8.18;70.96
73341;BME280;61578;52.002;5.468;2024-02-26T00:45:50;99914.06;;;8.22;71.31
73341;BME280;61578;52.002;5.468;2024-02-26T00:46:22;99915.00;;;8.21;71.10
73341;BME280;61578;52.002;5.468;2024-02-26T00:46:53;99924.75;;;8.20;70.99
73341;BME280;61578;52.002;5.468;2024-02-26T00:47:24;99917.75;;;8.19;71.18
73341;BME280;61578;52.002;5.468;2024-02-26T00:47:54;99918.59;;;8.20;71.09
73341;BME280;61578;52.002;5.468;2024-02-26T00:48:26;99913.31;;;8.20;71.02
73341;BME280;61578;52.002;5.468;2024-02-26T00:48:57;99908.13;;;8.18;71.03
73341;BME280;61578;52.002;5.468;2024-02-26T00:49:27;99912.66;;;8.16;71.34
73341;BME280;61578;52.002;5.468;2024-02-26T00:49:58;99902.94;;;8.17;71.20
73341;BME280;61578;52.002;5.468;2024-02-26T00:50:29;99893.09;;;8.06;71.11
73341;BME280;61578;52.002;5.468;2024-02-26T00:50:59;99915.84;;;8.21;70.88
73341;BME280;61578;52.002;5.468;2024-02-26T00:51:31;99910.78;;;8.18;71.21
73341;BME280;61578;52.002;5.468;2024-02-26T00:52:01;99911.41;;;8.22;71.00
73341;BME280;61578;52.002;5.468;2024-02-26T00:52:32;99913.97;;;8.23;71.15
73341;BME280;61578;52.002;5.468;2024-02-26T00:53:03;99913.97;;;8.23;70.99
73341;BME280;61578;52.002;5.468;2024-02-26T00:53:34;99905.09;;;8.24;71.10
73341;BME280;61578;52.002;5.468;2024-02-26T00:54:05;99911.31;;;8.23;70.73
73341;BME280;61578;52.002;5.468;2024-02-26T00:54:36;99898.00;;;8.12;71.05
73341;BME280;61578;52.002;5.468;2024-02-26T00:55:07;99869.09;;;7.96;70.61
73341;BME280;61578;52.002;5.468;2024-02-26T00:55:38;99913.00;;;8.24;70.50
73341;BME280;61578;52.002;5.468;2024-02-26T00:56:09;99901.88;;;8.19;70.91
73341;BME280;61578;52.002;5.468;2024-02-26T00:56:39;99910.38;;;8.24;70.84
73341;BME280;61578;52.002;5.468;2024-02-26T00:57:10;99914.81;;;8.24;70.93
73341;BME280;61578;52.002;5.468;2024-02-26T00:57:42;99909.81;;;8.19;70.81
73341;BME280;61578;52.002;5.468;2024-02-26T00:58:12;99908.88;;;8.20;71.04
73341;BME280;61578;52.002;5.468;2024-02-26T00:58:43;99911.53;;;8.20;70.52
73341;BME280;61578;52.002;5.468;2024-02-26T00:59:14;99914.81;;;8.24;70.89
73341;BME280;61578;52.002;5.468;2024-02-26T00:59:45;99914.69;;;8.25;70.90
73341;BME280;61578;52.002;5.468;2024-02-26T01:00:16;99911.41;;;8.22;70.92
73341;BME280;61578;52.002;5.468;2024-02-26T01:00:47;99886.78;;;8.08;71.06
73341;BME280;61578;52.002;5.468;2024-02-26T01:01:18;99915.66;;;8.24;70.87
73341;BME280;61578;52.002;5.468;2024-02-26T01:01:49;99829.13;;;7.75;71.05
73341;BME280;61578;52.002;5.468;2024-02-26T01:02:19;99858.53;;;7.96;70.75
73341;BME280;61578;52.002;5.468;2024-02-26T01:02:50;99901.78;;;8.21;70.98
73341;BME280;61578;52.002;5.468;2024-02-26T01:03:21;99906.03;;;8.23;70.90
73341;BME280;61578;52.002;5.468;2024-02-26T01:03:52;99902.63;;;8.21;70.69
73341;BME280;61578;52.002;5.468;2024-02-26T01:04:23;99913.22;;;8.21;71.18
73341;BME280;61578;52.002;5.468;2024-02-26T01:04:53;99895.56;;;8.22;71.20
73341;BME280;61578;52.002;5.468;2024-02-26T01:05:24;99928.75;;;8.26;70.66
73341;BME280;61578;52.002;5.468;2024-02-26T01:05:55;99908.66;;;8.23;71.08
73341;BME280;61578;52.002;5.468;2024-02-26T01:06:25;99909.38;;;8.25;71.36
73341;BME280;61578;52.002;5.468;2024-02-26T01:06:56;99911.19;;;8.25;70.97
73341;BME280;61578;52.002;5.468;2024-02-26T01:07:27;99909.38;;;8.25;71.22
73341;BME280;61578;52.002;5.468;2024-02-26T01:07:58;99911.09;;;8.26;71.01
73341;BME280;61578;52.002;5.468;2024-02-26T01:08:28;99903.50;;;8.22;71.09
73341;BME280;61578;52.002;5.468;2024-02-26T01:08:59;99891.84;;;8.11;70.78
73341;BME280;61578;52.002;5.468;2024-02-26T01:09:30;99906.03;;;8.23;70.85
73341;BME280;61578;52.002;5.468;2024-02-26T01:10:01;99904.22;;;8.24;70.77
73341;BME280;61578;52.002;5.468;2024-02-26T01:10:33;99906.13;;;8.22;70.97
73341;BME280;61578;52.002;5.468;2024-02-26T01:11:04;99895.56;;;8.22;70.81
73341;BME280;61578;52.002;5.468;2024-02-26T01:11:35;99904.22;;;8.24;70.90
73341;BME280;61578;52.002;5.468;2024-02-26T01:12:06;99909.38;;;8.25;71.04
73341;BME280;61578;52.002;5.468;2024-02-26T01:12:37;99897.34;;;8.21;71.24
73341;BME280;61578;52.002;5.468;2024-02-26T01:13:08;99904.34;;;8.22;71.25
73341;BME280;61578;52.002;5.468;2024-02-26T01:13:38;99913.13;;;8.23;71.14
73341;BME280;61578;52.002;5.468;2024-02-26T01:14:09;99897.34;;;8.21;71.29
73341;BME280;61578;52.002;5.468;2024-02-26T01:14:40;99904.34;;;8.22;71.02
73341;BME280;61578;52.002;5.468;2024-02-26T01:15:11;99907.94;;;8.21;70.98
73341;BME280;61578;52.002;5.468;2024-02-26T01:15:41;99907.09;;;8.21;71.25
73341;BME280;61578;52.002;5.468;2024-02-26T01:16:14;99909.94;;;8.18;71.14
73341;BME280;61578;52.002;5.468;2024-02-26T01:16:44;99911.41;;;8.22;70.87
73341;BME280;61578;52.002;5.468;2024-02-26T01:17:15;99898.19;;;8.22;70.68
73341;BME280;61578;52.002;5.468;2024-02-26T01:17:46;99895.31;;;8.25;70.97
73341;BME280;61578;52.002;5.468;2024-02-26T01:18:16;99900.75;;;8.23;70.77
73341;BME280;61578;52.002;5.468;2024-02-26T01:18:47;99904.09;;;8.25;70.88
73341;BME280;61578;52.002;5.468;2024-02-26T01:19:18;99863.63;;;7.99;70.90
73341;BME280;61578;52.002;5.468;2024-02-26T01:19:48;99897.56;;;8.18;71.03
73341;BME280;61578;52.002;5.468;2024-02-26T01:20:20;99916.59;;;8.23;71.12
73341;BME280;61578;52.002;5.468;2024-02-26T01:20:50;99901.47;;;8.25;70.69
73341;BME280;61578;52.002;5.468;2024-02-26T01:21:21;99904.94;;;8.26;71.03
73341;BME280;61578;52.002;5.468;2024-02-26T01:21:53;99901.78;;;8.21;70.95
73341;BME280;61578;52.002;5.468;2024-02-26T01:22:23;99910.66;;;8.20;71.10
73341;BME280;61578;52.002;5.468;2024-02-26T01:22:54;99901.16;;;8.17;70.88
73341;BME280;61578;52.002;5.468;2024-02-26T01:23:25;99897.75;;;8.15;70.70
73341;BME280;61578;52.002;5.468;2024-02-26T01:23:56;99907.63;;;8.13;70.96
73341;BME280;61578;52.002;5.468;2024-02-26T01:24:26;99870.78;;;7.97;71.34
73341;BME280;61578;52.002;5.468;2024-02-26T01:24:57;99904.53;;;8.19;70.83
73341;BME280;61578;52.002;5.468;2024-02-26T01:25:28;99861.59;;;7.90;70.98
73341;BME280;61578;52.002;5.468;2024-02-26T01:25:59;99905.69;;;8.15;71.01
73341;BME280;61578;52.002;5.468;2024-02-26T01:26:30;99868.69;;;7.90;70.89
73341;BME280;61578;52.002;5.468;2024-02-26T01:27:01;99902.31;;;8.13;71.17
73341;BME280;61578;52.002;5.468;2024-02-26T01:27:32;99902.84;;;8.18;71.10
73341;BME280;61578;52.002;5.468;2024-02-26T01:28:03;99911.63;;;8.19;71.25
73341;BME280;61578;52.002;5.468;2024-02-26T01:28:34;99907.63;;;8.13;70.94
73341;BME280;61578;52.002;5.468;2024-02-26T01:29:05;99909.72;;;8.21;70.98
73341;BME280;61578;52.002;5.468;2024-02-26T01:29:36;99908.22;;;8.17;70.85
73341;BME280;61578;52.002;5.468;2024-02-26T01:30:07;99904.03;;;8.14;71.21
73341;BME280;61578;52.002;5.468;2024-02-26T01:30:39;99904.63;;;8.18;71.53
73341;BME280;61578;52.002;5.468;2024-02-26T01:31:09;99901.16;;;8.17;71.13
73341;BME280;61578;52.002;5.468;2024-02-26T01:31:40;99862.34;;;7.92;70.88
73341;BME280;61578;52.002;5.468;2024-02-26T01:32:11;99906.53;;;8.16;71.19
73341;BME280;61578;52.002;5.468;2024-02-26T01:32:42;99905.69;;;8.15;71.33
73341;BME280;61578;52.002;5.468;2024-02-26T01:33:13;99857.38;;;7.88;71.11
73341;BME280;61578;52.002;5.468;2024-02-26T01:33:44;99896.41;;;8.09;71.54
73341;BME280;61578;52.002;5.468;2024-02-26T01:34:14;99902.44;;;8.11;71.63
73341;BME280;61578;52.002;5.468;2024-02-26T01:34:45;99899.69;;;8.13;71.29
73341;BME280;61578;52.002;5.468;2024-02-26T01:35:16;99854.22;;;7.83;71.35
73341;BME280;61578;52.002;5.468;2024-02-26T01:35:47;99903.19;;;8.13;71.62
73341;BME280;61578;52.002;5.468;2024-02-26T01:36:18;99905.06;;;8.11;71.37
73341;BME280;61578;52.002;5.468;2024-02-26T01:36:48;99911.09;;;8.13;71.45
73341;BME280;61578;52.002;5.468;2024-02-26T01:37:19;99898.59;;;8.16;71.46
73341;BME280;61578;52.002;5.468;2024-02-26T01:37:50;99905.69;;;8.15;71.46
73341;BME280;61578;52.002;5.468;2024-02-26T01:38:21;99908.47;;;8.13;71.84
73341;BME280;61578;52.002;5.468;2024-02-26T01:38:51;99899.69;;;8.13;71.46
73341;BME280;61578;52.002;5.468;2024-02-26T01:39:22;99801.88;;;7.50;71.32
73341;BME280;61578;52.002;5.468;2024-02-26T01:39:53;99907.81;;;8.10;71.35
73341;BME280;61578;52.002;5.468;2024-02-26T01:40:27;99871.53;;;7.87;70.88
73341;BME280;61578;52.002;5.468;2024-02-26T01:40:58;99910.25;;;8.13;71.43
73341;BME280;61578;52.002;5.468;2024-02-26T01:41:29;99866.91;;;7.90;71.50
73341;BME280;61578;52.002;5.468;2024-02-26T01:41:59;99913.75;;;8.13;71.63
73341;BME280;61578;52.002;5.468;2024-02-26T01:42:30;99896.41;;;8.09;71.35
73341;BME280;61578;52.002;5.468;2024-02-26T01:43:02;99902.19;;;8.14;71.41
73341;BME280;61578;52.002;5.468;2024-02-26T01:43:33;99831.38;;;7.69;71.50
73341;BME280;61578;52.002;5.468;2024-02-26T01:44:04;99863.31;;;7.91;71.32
73341;BME280;61578;52.002;5.468;2024-02-26T01:44:35;99872.69;;;7.95;71.22
73341;BME280;61578;52.002;5.468;2024-02-26T01:45:14;99916.41;;;8.13;71.23
73341;BME280;61578;52.002;5.468;2024-02-26T01:45:51;99916.25;;;8.15;71.13
73341;BME280;61578;52.002;5.468;2024-02-26T01:46:22;99914.47;;;8.16;71.41
73341;BME280;61578;52.002;5.468;2024-02-26T01:46:54;99917.97;;;8.16;71.45
73341;BME280;61578;52.002;5.468;2024-02-26T01:47:26;99912.06;;;8.12;71.58
73341;BME280;61578;52.002;5.468;2024-02-26T01:47:58;99895.97;;;8.03;71.25
73341;BME280;61578;52.002;5.468;2024-02-26T01:48:30;99885.91;;;7.95;71.13
73341;BME280;61578;52.002;5.468;2024-02-26T01:49:02;99910.03;;;8.16;71.12
73341;BME280;61578;52.002;5.468;2024-02-26T01:49:34;99908.97;;;8.19;71.42
73341;BME280;61578;52.002;5.468;2024-02-26T01:50:06;99876.09;;;7.97;71.35
73341;BME280;61578;52.002;5.468;2024-02-26T01:50:37;99918.41;;;8.23;71.42
73341;BME280;61578;52.002;5.468;2024-02-26T01:51:10;99887.19;;;8.02;71.19
73341;BME280;61578;52.002;5.468;2024-02-26T01:51:43;99848.38;;;7.78;70.87
73341;BME280;61578;52.002;5.468;2024-02-26T01:52:15;99919.97;;;8.25;71.24
73341;BME280;61578;52.002;5.468;2024-02-26T01:52:47;99919.13;;;8.25;71.04
73341;BME280;61578;52.002;5.468;2024-02-26T01:53:21;99931.53;;;8.24;71.13
73341;BME280;61578;52.002;5.468;2024-02-26T01:53:53;99919.03;;;8.26;71.36
73341;BME280;61578;52.002;5.468;2024-02-26T01:54:24;99902.19;;;8.14;71.22
73341;BME280;61578;52.002;5.468;2024-02-26T01:54:56;99918.41;;;8.23;71.27
73341;BME280;61578;52.002;5.468;2024-02-26T01:55:27;99918.16;;;8.26;71.03
73341;BME280;61578;52.002;5.468;2024-02-26T01:55:58;99885.41;;;8.03;70.95
73341;BME280;61578;52.002;5.468;2024-02-26T01:56:30;99925.38;;;8.24;71.00
73341;BME280;61578;52.002;5.468;2024-02-26T01:57:04;99926.09;;;8.26;71.20
73341;BME280;61578;52.002;5.468;2024-02-26T01:57:36;99914.16;;;8.20;71.00
73341;BME280;61578;52.002;5.468;2024-02-26T01:58:07;99876.19;;;7.96;70.74
73341;BME280;61578;52.002;5.468;2024-02-26T01:58:39;99923.78;;;8.21;70.88
73341;BME280;61578;52.002;5.468;2024-02-26T01:59:10;99923.59;;;8.24;71.08
73341;BME280;61578;52.002;5.468;2024-02-26T01:59:41;99924.75;;;8.20;70.60
73341;BME280;61578;52.002;5.468;2024-02-26T02:00:14;99918.41;;;8.23;71.06
73341;BME280;61578;52.002;5.468;2024-02-26T02:00:47;99927.19;;;8.23;70.83
73341;BME280;61578;52.002;5.468;2024-02-26T02:01:21;99920.50;;;8.18;70.90
73341;BME280;61578;52.002;5.468;2024-02-26T02:01:58;99887.09;;;8.04;71.12
73341;BME280;61578;52.002;5.468;2024-02-26T02:02:32;99925.50;;;8.22;70.89
73341;BME280;61578;52.002;5.468;2024-02-26T02:03:04;99931.19;;;8.29;70.95
73341;BME280;61578;52.002;5.468;2024-02-26T02:03:36;99927.06;;;8.25;70.84
73341;BME280;61578;52.002;5.468;2024-02-26T02:04:07;99915.41;;;8.27;70.86
73341;BME280;61578;52.002;5.468;2024-02-26T02:04:38;99930.34;;;8.28;70.54
73341;BME280;61578;52.002;5.468;2024-02-26T02:05:11;99919.88;;;8.27;70.61
73341;BME280;61578;52.002;5.468;2024-02-26T02:05:44;99898.09;;;8.10;70.91
73341;BME280;61578;52.002;5.468;2024-02-26T02:06:15;99926.00;;;8.27;70.78
73341;BME280;61578;52.002;5.468;2024-02-26T02:06:47;99918.31;;;8.24;71.06
73341;BME280;61578;52.002;5.468;2024-02-26T02:07:21;99915.31;;;8.16;70.65
73341;BME280;61578;52.002;5.468;2024-02-26T02:07:54;99925.25;;;8.25;70.82
73341;BME280;61578;52.002;5.468;2024-02-26T02:08:24;99883.16;;;7.97;70.84
73341;BME280;61578;52.002;5.468;2024-02-26T02:08:56;99924.53;;;8.23;70.97
73341;BME280;61578;52.002;5.468;2024-02-26T02:09:27;99886.47;;;8.00;71.01
73341;BME280;61578;52.002;5.468;2024-02-26T02:10:00;99927.91;;;8.25;71.03
73341;BME280;61578;52.002;5.468;2024-02-26T02:10:30;99858.84;;;7.79;71.17
73341;BME280;61578;52.002;5.468;2024-02-26T02:11:01;99928.97;;;8.23;70.61
73341;BME280;61578;52.002;5.468;2024-02-26T02:11:33;99936.06;;;8.22;71.30
73341;BME280;61578;52.002;5.468;2024-02-26T02:12:05;99932.25;;;8.26;70.99
73341;BME280;61578;52.002;5.468;2024-02-26T02:12:37;99940.16;;;8.26;71.13
73341;BME280;61578;52.002;5.468;2024-02-26T02:13:10;99931.53;;;8.24;71.03
73341;BME280;61578;52.002;5.468;2024-02-26T02:13:41;99941.25;;;8.24;70.74
73341;BME280;61578;52.002;5.468;2024-02-26T02:14:11;99941.34;;;8.22;71.19
73341;BME280;61578;52.002;5.468;2024-02-26T02:14:42;99934.47;;;8.20;71.04
73341;BME280;61578;52.002;5.468;2024-02-26T02:15:13;99936.16;;;8.21;70.97
73341;BME280;61578;52.002;5.468;2024-02-26T02:15:44;99939.75;;;8.20;71.29
73341;BME280;61578;52.002;5.468;2024-02-26T02:16:16;99947.59;;;8.21;70.95
73341;BME280;61578;52.002;5.468;2024-02-26T02:16:47;99941.56;;;8.19;70.90
73341;BME280;61578;52.002;5.468;2024-02-26T02:17:19;99937.41;;;8.15;71.16
73341;BME280;61578;52.002;5.468;2024-02-26T02:17:51;99950.13;;;8.23;71.20
73341;BME280;61578;52.002;5.468;2024-02-26T02:18:21;99945.69;;;8.23;71.29
73341;BME280;61578;52.002;5.468;2024-02-26T02:18:52;99943.16;;;8.22;71.24
73341;BME280;61578;52.002;5.468;2024-02-26T02:19:23;99952.69;;;8.24;70.83
73341;BME280;61578;52.002;5.468;2024-02-26T02:19:54;99943.34;;;8.19;70.96
73341;BME280;61578;52.002;5.468;2024-02-26T02:20:26;99949.28;;;8.22;70.55
73341;BME280;61578;52.002;5.468;2024-02-26T02:21:04;99949.19;;;8.24;70.69
73341;BME280;61578;52.002;5.468;2024-02-26T02:21:35;99955.19;;;8.26;70.71
73341;BME280;61578;52.002;5.468;2024-02-26T02:22:05;99946.75;;;8.21;70.76
73341;BME280;61578;52.002;5.468;2024-02-26T02:22:36;99949.91;;;8.26;70.61
73341;BME280;61578;52.002;5.468;2024-02-26T02:23:07;99954.34;;;8.25;70.78
73341;BME280;61578;52.002;5.468;2024-02-26T02:23:38;99965.66;;;8.27;70.54
73341;BME280;61578;52.002;5.468;2024-02-26T02:24:09;99953.28;;;8.28;70.61
73341;BME280;61578;52.002;5.468;2024-02-26T02:24:40;99956.69;;;8.30;70.95
73341;BME280;61578;52.002;5.468;2024-02-26T02:25:10;99958.47;;;8.29;70.91
73341;BME280;61578;52.002;5.468;2024-02-26T02:25:41;99919.63;;;8.04;70.46
73341;BME280;61578;52.002;5.468;2024-02-26T02:26:15;99962.28;;;8.25;70.89
73341;BME280;61578;52.002;5.468;2024-02-26T02:26:47;99967.38;;;8.28;70.89
73341;BME280;61578;52.002;5.468;2024-02-26T02:27:19;99968.13;;;8.30;71.04
73341;BME280;61578;52.002;5.468;2024-02-26T02:27:53;99966.41;;;8.29;70.75
73341;BME280;61578;52.002;5.468;2024-02-26T02:28:26;99971.53;;;8.32;71.01
73341;BME280;61578;52.002;5.468;2024-02-26T02:28:58;99974.09;;;8.34;70.55
73341;BME280;61578;52.002;5.468;2024-02-26T02:29:30;99969.63;;;8.34;70.67
73341;BME280;61578;52.002;5.468;2024-02-26T02:30:02;99967.94;;;8.33;70.83
73341;BME280;61578;52.002;5.468;2024-02-26T02:30:34;99970.47;;;8.35;70.71
73341;BME280;61578;52.002;5.468;2024-02-26T02:31:06;99950.53;;;8.17;70.66
73341;BME280;61578;52.002;5.468;2024-02-26T02:31:38;99971.72;;;8.29;70.90
73341;BME280;61578;52.002;5.468;2024-02-26T02:32:09;99973.22;;;8.33;71.00
73341;BME280;61578;52.002;5.468;2024-02-26T02:32:40;99966.50;;;8.28;70.76
73341;BME280;61578;52.002;5.468;2024-02-26T02:33:12;99976.16;;;8.29;70.94
73341;BME280;61578;52.002;5.468;2024-02-26T02:33:45;99968.78;;;8.34;70.78
73341;BME280;61578;52.002;5.468;2024-02-26T02:34:16;99965.31;;;8.33;70.84
73341;BME280;61578;52.002;5.468;2024-02-26T02:34:47;99962.06;;;8.28;70.52
73341;BME280;61578;52.002;5.468;2024-02-26T02:35:18;99968.78;;;8.34;70.35
73341;BME280;61578;52.002;5.468;2024-02-26T02:35:48;99967.94;;;8.33;70.64
73341;BME280;61578;52.002;5.468;2024-02-26T02:36:21;99961.31;;;8.26;70.76
73341;BME280;61578;52.002;5.468;2024-02-26T02:36:52;99968.88;;;8.32;70.62
73341;BME280;61578;52.002;5.468;2024-02-26T02:37:23;99961.44;;;8.25;70.35
73341;BME280;61578;52.002;5.468;2024-02-26T02:37:56;99974.09;;;8.34;70.32
73341;BME280;61578;52.002;5.468;2024-02-26T02:38:27;99977.00;;;8.29;70.81
73341;BME280;61578;52.002;5.468;2024-02-26T02:39:00;99966.16;;;8.34;70.57
73341;BME280;61578;52.002;5.468;2024-02-26T02:39:31;99975.50;;;8.25;70.55
73341;BME280;61578;52.002;5.468;2024-02-26T02:40:01;99971.91;;;8.26;70.23
73341;BME280;61578;52.002;5.468;2024-02-26T02:40:32;99976.03;;;8.30;70.43
73341;BME280;61578;52.002;5.468;2024-02-26T02:41:03;99955.63;;;8.20;70.31
73341;BME280;61578;52.002;5.468;2024-02-26T02:41:35;99970.22;;;8.25;70.43
73341;BME280;61578;52.002;5.468;2024-02-26T02:42:06;99969.34;;;8.25;70.61
73341;BME280;61578;52.002;5.468;2024-02-26T02:42:36;99952.03;;;8.21;70.64
73341;BME280;61578;52.002;5.468;2024-02-26T02:43:07;99974.53;;;8.26;70.80
73341;BME280;61578;52.002;5.468;2024-02-26T02:43:38;99976.16;;;8.29;70.79
73341;BME280;61578;52.002;5.468;2024-02-26T02:44:08;99971.91;;;8.26;70.72
73341;BME280;61578;52.002;5.468;2024-02-26T02:44:39;99972.75;;;8.27;70.95
73341;BME280;61578;52.002;5.468;2024-02-26T02:45:10;99975.28;;;8.28;70.75
73341;BME280;61578;52.002;5.468;2024-02-26T02:45:41;99966.63;;;8.26;70.47
73341;BME280;61578;52.002;5.468;2024-02-26T02:46:12;99934.69;;;8.04;70.54
73341;BME280;61578;52.002;5.468;2024-02-26T02:46:42;99956.78;;;8.16;70.95
73341;BME280;61578;52.002;5.468;2024-02-26T02:47:13;99951.38;;;8.17;70.54
73341;BME280;61578;52.002;5.468;2024-02-26T02:47:44;99965.78;;;8.26;70.55